Terminal Aerodrome Forecast
Issued by NWS

Home | Current Version | Previous Version | Text Only | Print | Product List | Glossary On
Versions: 1 2 3 4 5 6 7 8 9 10 11 12 13 14 15 16 17 18 19 20 21
000
FTUS44 KMAF 261700 RRA
TAFPEQ
TAF
KPEQ 261742Z 2618/2718 25013G23KT P6SM SCT150
     FM270000 28009KT P6SM BKN100
     FM270900 32010KT P6SM BKN060
     FM271200 02008KT P6SM OVC050=

USA.gov is the U.S. government's official web portal to all federal, state and local government web resources and services.